createdAt,value
2019-04-16T00:00:48.025Z,39.78
2019-04-16T00:03:20.324Z,47.10
2019-04-16T00:05:50.708Z,56.10
2019-04-16T00:08:33.808Z,44.93
2019-04-16T00:11:11.149Z,41.15
2019-04-16T00:13:42.498Z,48.65
2019-04-16T00:16:13.005Z,50.55
2019-04-16T00:18:56.382Z,59.50
2019-04-16T00:21:19.272Z,50.85
2019-04-16T00:24:05.391Z,37.53
2019-04-16T00:26:35.051Z,34.75
2019-04-16T00:29:04.880Z,33.53
2019-04-16T00:31:37.118Z,35.45
2019-04-16T00:34:05.886Z,32.17
2019-04-16T00:36:35.553Z,34.88
2019-04-16T00:39:06.749Z,38.85
2019-04-16T00:41:36.669Z,35.50
2019-04-16T00:44:06.289Z,36.60
2019-04-16T00:46:35.951Z,31.87
2019-04-16T00:49:05.574Z,31.33
2019-04-16T00:51:35.230Z,33.53
2019-04-16T00:54:09.688Z,26.33
2019-04-16T00:56:36.539Z,23.40
2019-04-16T00:59:06.603Z,28.67
2019-04-16T01:01:36.223Z,33.98
2019-04-16T01:04:06.089Z,33.38
2019-04-16T01:06:37.990Z,31.87
2019-04-16T01:09:07.643Z,31.60
2019-04-16T01:11:37.263Z,26.57
2019-04-16T01:14:07.111Z,30.08
2019-04-16T01:16:36.730Z,30.62
2019-04-16T01:19:09.491Z,29.67
2019-04-16T01:21:37.870Z,23.80
2019-04-16T01:24:08.418Z,32.15
2019-04-16T01:26:38.857Z,34.75
2019-04-16T01:29:11.938Z,42.55
2019-04-16T01:31:46.541Z,47.10
2019-04-16T01:34:33.761Z,47.85
2019-04-16T01:37:14.014Z,47.73
2019-04-16T01:39:48.311Z,41.73
2019-04-16T01:42:17.881Z,46.55
2019-04-16T01:44:47.535Z,44.63
2019-04-16T01:47:17.159Z,36.15
2019-04-16T01:49:46.807Z,42.40
2019-04-16T01:52:18.914Z,50.92
2019-04-16T01:54:47.780Z,41.25
2019-04-16T01:57:17.433Z,30.25
2019-04-16T01:59:47.057Z,34.48
2019-04-16T02:02:16.694Z,38.13
2019-04-16T02:04:48.524Z,28.67
2019-04-16T02:07:17.683Z,21.55
2019-04-16T02:09:47.330Z,24.32
2019-04-16T02:12:16.956Z,28.62
2019-04-16T02:14:47.339Z,22.93
2019-04-16T02:17:17.922Z,25.57
2019-04-16T02:19:47.569Z,23.45
2019-04-16T02:22:17.194Z,28.77
2019-04-16T02:24:47.798Z,58.25
2019-04-16T02:27:18.187Z,80.97
2019-04-16T02:29:48.015Z,74.37
2019-04-16T02:32:17.673Z,63.50
2019-04-16T02:34:47.309Z,51.05
2019-04-16T02:37:16.954Z,60.52
2019-04-16T02:39:48.952Z,76.20
2019-04-16T02:42:19.188Z,43.08
2019-04-16T02:44:50.240Z,43.83
2019-04-16T02:47:20.043Z,57.33
2019-04-16T02:49:56.421Z,52.78
2019-04-16T02:52:25.598Z,37.03
2019-04-16T02:55:10.890Z,49.95
2019-04-16T02:57:44.342Z,45.80
2019-04-16T03:00:21.855Z,65.22
2019-04-16T03:02:55.847Z,44.75
2019-04-16T03:05:32.842Z,61.08
2019-04-16T03:08:04.979Z,63.63
2019-04-16T03:10:33.815Z,65.22
2019-04-16T03:13:03.461Z,46.58
2019-04-16T03:15:40.749Z,47.20
2019-04-16T03:18:14.770Z,65.92
2019-04-16T03:20:43.096Z,49.83
2019-04-16T03:23:13.338Z,54.83
2019-04-16T03:25:44.252Z,63.13
2019-04-16T03:28:14.322Z,58.02
2019-04-16T03:30:43.949Z,48.83
2019-04-16T03:33:15.508Z,50.73
2019-04-16T03:35:44.934Z,48.10
2019-04-16T03:38:14.590Z,44.00
2019-04-16T03:40:44.214Z,40.33
2019-04-16T03:43:14.000Z,48.10
2019-04-16T03:45:43.584Z,54.65
2019-04-16T03:48:13.324Z,46.05
2019-04-16T03:50:43.410Z,68.33
2019-04-16T03:53:16.305Z,62.33
2019-04-16T03:55:44.416Z,52.98
2019-04-16T03:58:14.037Z,67.72
2019-04-16T04:00:44.171Z,57.25
2019-04-16T04:03:14.599Z,67.40
2019-04-16T04:05:45.893Z,61.83
2019-04-16T04:08:17.381Z,66.60
2019-04-16T04:10:46.876Z,73.87
2019-04-16T04:13:18.612Z,75.08
2019-04-16T04:15:47.847Z,79.32
2019-04-16T04:18:17.471Z,91.42
2019-04-16T04:20:49.878Z,65.75
2019-04-16T04:23:18.443Z,53.35
2019-04-16T04:25:48.114Z,53.52
2019-04-16T04:28:19.760Z,47.27
2019-04-16T04:30:49.266Z,43.15
2019-04-16T04:33:40.718Z,38.73
2019-04-16T04:36:10.220Z,45.33
2019-04-16T04:38:40.419Z,40.52
2019-04-16T04:41:10.284Z,38.60
2019-04-16T04:43:39.898Z,47.95
2019-04-16T04:46:13.511Z,38.92
2019-04-16T04:48:40.898Z,36.65
2019-04-16T04:51:11.159Z,48.70
2019-04-16T04:53:40.781Z,41.23
2019-04-16T04:56:11.112Z,35.20
2019-04-16T04:58:42.696Z,36.03
2019-04-16T05:01:14.089Z,76.70
2019-04-16T05:03:51.557Z,72.08
2019-04-16T05:06:26.820Z,61.90
2019-04-16T05:08:54.173Z,43.87
2019-04-16T05:11:23.838Z,75.85
2019-04-16T05:13:56.442Z,45.60
2019-04-16T05:16:31.552Z,79.05
2019-04-16T05:19:03.285Z,41.92
2019-04-16T05:21:33.383Z,63.13
2019-04-16T05:24:03.022Z,50.58
2019-04-16T05:26:33.606Z,54.63
2019-04-16T05:29:17.371Z,41.73
2019-04-16T05:31:44.495Z,41.28
2019-04-16T05:34:17.167Z,56.40
2019-04-16T05:36:47.693Z,55.38
2019-04-16T05:39:16.777Z,24.57
2019-04-16T05:41:46.439Z,202.55
2019-04-16T05:44:16.226Z,37.78
2019-04-16T05:46:46.748Z,77.08
2019-04-16T05:49:16.699Z,59.25
2019-04-16T05:51:46.332Z,77.12
2019-04-16T05:54:26.479Z,43.13
2019-04-16T05:56:57.837Z,40.45
2019-04-16T05:59:27.461Z,42.30
2019-04-16T06:01:58.751Z,33.67
2019-04-16T06:04:28.371Z,33.90
2019-04-16T06:07:02.816Z,30.10
2019-04-16T06:09:29.434Z,26.57
2019-04-16T06:11:59.158Z,31.50
2019-04-16T06:14:30.411Z,36.58
2019-04-16T06:17:04.381Z,32.50
2019-04-16T06:19:46.821Z,137.18
2019-04-16T06:22:20.055Z,62.33
2019-04-16T06:25:09.521Z,34.73
2019-04-16T06:27:46.513Z,40.25
2019-04-16T06:30:32.973Z,33.55
2019-04-16T06:33:07.619Z,34.05
2019-04-16T06:35:47.698Z,33.15
2019-04-16T06:38:21.959Z,32.45
2019-04-16T06:40:56.283Z,33.55
2019-04-16T06:43:27.866Z,33.48
2019-04-16T06:46:08.534Z,36.42
2019-04-16T06:48:46.022Z,32.28
2019-04-16T06:51:32.352Z,41.58
2019-04-16T06:54:19.825Z,30.00
2019-04-16T06:57:09.693Z,36.93
2019-04-16T06:59:56.356Z,44.40
2019-04-16T07:03:01.252Z,40.58
2019-04-16T07:05:33.245Z,36.85
2019-04-16T07:08:04.601Z,30.45
2019-04-16T07:10:44.505Z,39.90
2019-04-16T07:13:09.944Z,37.03
2019-04-16T07:15:38.674Z,36.48
2019-04-16T07:18:08.702Z,39.45
2019-04-16T07:20:42.261Z,28.00
2019-04-16T07:23:12.458Z,30.05
2019-04-16T07:25:43.585Z,29.20
2019-04-16T07:28:35.444Z,27.42
2019-04-16T07:31:16.606Z,27.52
2019-04-16T07:34:01.674Z,25.08
2019-04-16T07:36:51.423Z,24.80
2019-04-16T07:39:30.053Z,22.87
2019-04-16T07:42:10.597Z,22.90
2019-04-16T07:44:58.799Z,30.23
2019-04-16T07:47:56.172Z,27.37
2019-04-16T07:50:43.613Z,31.25
2019-04-16T07:53:30.876Z,33.08
2019-04-16T07:56:19.609Z,22.93
2019-04-16T07:59:06.743Z,30.27
2019-04-16T08:01:36.398Z,24.12
2019-04-16T08:04:06.057Z,22.65
2019-04-16T08:06:35.680Z,21.42
2019-04-16T08:09:07.384Z,22.17
2019-04-16T08:11:37.007Z,20.62
2019-04-16T08:14:10.295Z,23.25
2019-04-16T08:16:47.326Z,22.52
2019-04-16T08:19:15.312Z,18.35
2019-04-16T08:21:45.838Z,19.48
2019-04-16T08:24:24.463Z,19.90
2019-04-16T08:26:53.638Z,20.57
2019-04-16T08:29:38.390Z,17.50
2019-04-16T08:32:25.854Z,128.47
2019-04-16T08:35:14.392Z,26.50
2019-04-16T08:37:49.051Z,15.68
2019-04-16T08:40:32.641Z,19.05
2019-04-16T08:43:02.269Z,14.80
2019-04-16T08:45:31.926Z,29.00
2019-04-16T08:48:01.552Z,16.40
2019-04-16T08:50:31.207Z,13.83
2019-04-16T08:53:00.824Z,35.35
2019-04-16T08:55:30.485Z,18.70
2019-04-16T08:58:00.312Z,16.07
2019-04-16T09:00:30.386Z,15.98
2019-04-16T09:03:00.010Z,10.78
2019-04-16T09:05:47.034Z,13.60
2019-04-16T09:08:21.798Z,19.23
2019-04-16T09:11:07.623Z,26.52
2019-04-16T09:13:44.473Z,21.55
2019-04-16T09:16:13.570Z,16.17
2019-04-16T09:18:56.819Z,13.15
2019-04-16T09:21:28.192Z,15.53
2019-04-16T09:24:17.398Z,16.85
2019-04-16T09:27:04.307Z,11.55
2019-04-16T09:29:47.471Z,11.33
2019-04-16T09:32:18.767Z,12.33
2019-04-16T09:34:50.026Z,18.52
2019-04-16T09:37:55.065Z,8.95
2019-04-16T09:40:49.184Z,15.13
2019-04-16T09:43:47.131Z,10.90
2019-04-16T09:46:48.848Z,18.02
2019-04-16T09:49:14.215Z,11.60
2019-04-16T09:51:43.870Z,48.15
2019-04-16T09:54:31.755Z,18.20
2019-04-16T09:57:04.149Z,8.83
2019-04-16T09:59:44.724Z,8.90
2019-04-16T10:02:20.278Z,13.38
2019-04-16T10:05:01.948Z,9.73
2019-04-16T10:07:40.411Z,11.93
2019-04-16T10:10:17.839Z,10.85
2019-04-16T10:13:05.300Z,13.15
2019-04-16T10:15:34.930Z,13.95
2019-04-16T10:18:07.588Z,9.03
2019-04-16T10:20:48.968Z,12.88
2019-04-16T10:23:40.262Z,79.75
2019-04-16T10:26:12.728Z,11.33
2019-04-16T10:28:48.515Z,10.20
2019-04-16T10:31:26.283Z,9.35
2019-04-16T10:34:13.514Z,9.00
2019-04-16T10:36:43.411Z,12.78
2019-04-16T10:39:29.184Z,11.57
2019-04-16T10:42:06.504Z,9.73
2019-04-16T10:44:46.920Z,8.63
2019-04-16T10:47:44.399Z,11.65
2019-04-16T10:50:33.515Z,174.82
2019-04-16T10:53:28.083Z,10.68
2019-04-16T10:56:13.839Z,9.13
2019-04-16T10:58:50.723Z,11.63
2019-04-16T11:01:34.777Z,9.80
2019-04-16T11:04:37.144Z,9.80
2019-04-16T11:07:34.903Z,10.43
2019-04-16T11:10:21.866Z,9.88
2019-04-16T11:12:51.523Z,12.07
2019-04-16T11:15:22.868Z,15.93
2019-04-16T11:17:52.503Z,9.23
2019-04-16T11:20:34.178Z,8.23
2019-04-16T11:23:21.343Z,11.48
2019-04-16T11:25:53.690Z,11.68
2019-04-16T11:28:23.420Z,8.25
2019-04-16T11:30:57.501Z,9.30
2019-04-16T11:33:27.648Z,10.35
2019-04-16T11:35:57.404Z,9.05
2019-04-16T11:38:27.088Z,10.93
2019-04-16T11:40:56.687Z,8.70
2019-04-16T11:43:26.377Z,92.55
2019-04-16T11:45:56.045Z,8.30
2019-04-16T11:48:25.726Z,19.95
2019-04-16T11:50:55.344Z,29.00
2019-04-16T11:53:27.824Z,6.37
2019-04-16T11:55:57.428Z,7.05
2019-04-16T11:58:43.570Z,10.08
2019-04-16T12:01:17.662Z,10.10
2019-04-16T12:03:57.812Z,18.02
2019-04-16T12:06:29.135Z,10.82
2019-04-16T12:09:09.285Z,40.20
2019-04-16T12:11:43.163Z,11.68
2019-04-16T12:14:42.159Z,7.85
2019-04-16T12:17:16.721Z,6.28
2019-04-16T12:20:09.953Z,6.30
2019-04-16T12:23:05.189Z,12.45
2019-04-16T12:26:10.014Z,7.03
2019-04-16T12:29:01.507Z,9.28
2019-04-16T12:32:03.658Z,261.27
2019-04-16T12:34:46.946Z,5.40
2019-04-16T12:37:51.647Z,10.20
2019-04-16T12:40:55.483Z,11.80
2019-04-16T12:43:26.797Z,315.40
2019-04-16T12:46:00.744Z,10.58
2019-04-16T12:48:52.691Z,8.18
2019-04-16T12:51:40.916Z,11.12
2019-04-16T12:54:18.042Z,27.93
2019-04-16T12:56:49.482Z,15.08
2019-04-16T12:59:23.379Z,10.72
2019-04-16T13:02:03.753Z,10.13
2019-04-16T13:04:37.745Z,8.85
2019-04-16T13:07:26.303Z,18.80
2019-04-16T13:10:15.553Z,19.02
2019-04-16T13:12:51.054Z,7.22
2019-04-16T13:15:25.030Z,30.57
2019-04-16T13:17:56.297Z,42.70
2019-04-16T13:20:33.259Z,23.20
2019-04-16T13:23:19.392Z,9.93
2019-04-16T13:26:19.644Z,8.95
2019-04-16T13:28:49.437Z,11.12
2019-04-16T13:31:22.132Z,10.50
2019-04-16T13:33:54.509Z,11.97
2019-04-16T13:36:26.991Z,125.82
2019-04-16T13:38:57.282Z,8.63
2019-04-16T13:41:29.452Z,11.80
2019-04-16T13:44:00.796Z,8.93
2019-04-16T13:46:30.473Z,9.53
2019-04-16T13:49:13.329Z,10.08
2019-04-16T13:51:45.035Z,10.90
2019-04-16T13:54:16.050Z,7.25
2019-04-16T13:56:53.243Z,14.60
2019-04-16T13:59:24.591Z,11.95
2019-04-16T14:01:58.869Z,11.28
2019-04-16T14:04:30.587Z,12.10
2019-04-16T14:06:59.338Z,11.73
2019-04-16T14:09:29.088Z,33.75
2019-04-16T14:11:58.944Z,9.03
2019-04-16T14:14:28.649Z,11.48
2019-04-16T14:17:08.245Z,11.43
2019-04-16T14:19:29.732Z,19.95
2019-04-16T14:21:59.413Z,10.68
2019-04-16T14:24:29.128Z,20.02
2019-04-16T14:26:58.810Z,8.83
2019-04-16T14:29:28.513Z,6.47
2019-04-16T14:31:58.192Z,12.20
2019-04-16T14:34:35.167Z,8.78
2019-04-16T14:37:04.849Z,14.63
2019-04-16T14:39:36.200Z,9.50
2019-04-16T14:42:05.868Z,14.87
2019-04-16T14:44:40.131Z,10.28
2019-04-16T14:47:10.076Z,10.48
2019-04-16T14:49:39.879Z,9.70
2019-04-16T14:52:09.566Z,102.70
2019-04-16T14:54:40.919Z,22.90
2019-04-16T14:57:11.274Z,19.48
2019-04-16T14:59:42.891Z,16.60
2019-04-16T15:02:30.521Z,15.45
2019-04-16T15:05:04.527Z,15.40
2019-04-16T15:07:44.092Z,10.72
2019-04-16T15:10:31.025Z,89.15
2019-04-16T15:13:02.335Z,12.78
2019-04-16T15:15:45.704Z,10.90
2019-04-16T15:18:17.021Z,12.37
2019-04-16T15:21:10.246Z,11.10
2019-04-16T15:23:45.959Z,27.55
2019-04-16T15:26:29.091Z,14.87
2019-04-16T15:29:00.413Z,17.25
2019-04-16T15:31:34.172Z,25.92
2019-04-16T15:34:14.186Z,13.22
2019-04-16T15:36:49.909Z,16.77
2019-04-16T15:39:18.545Z,17.95
2019-04-16T15:41:58.814Z,19.12
2019-04-16T15:44:35.828Z,13.43
2019-04-16T15:47:23.334Z,12.00
2019-04-16T15:49:55.923Z,12.15
2019-04-16T15:52:27.857Z,22.80
2019-04-16T15:55:05.233Z,16.20
2019-04-16T15:57:42.375Z,19.73
2019-04-16T16:00:32.056Z,16.40
2019-04-16T16:03:19.353Z,39.33
2019-04-16T16:05:50.675Z,16.12
2019-04-16T16:08:30.346Z,13.40
2019-04-16T16:11:18.805Z,11.45
2019-04-16T16:13:49.044Z,17.23
2019-04-16T16:16:19.026Z,17.52
2019-04-16T16:18:49.058Z,15.03
2019-04-16T16:21:18.734Z,23.00
2019-04-16T16:23:49.056Z,12.23
2019-04-16T16:26:18.737Z,18.67
2019-04-16T16:28:49.052Z,13.58
2019-04-16T16:31:18.735Z,45.28
2019-04-16T16:33:49.054Z,26.57
2019-04-16T16:36:18.934Z,45.52
2019-04-16T16:38:49.284Z,42.88
2019-04-16T16:41:19.022Z,152.15
2019-04-16T16:43:49.039Z,142.68
2019-04-16T16:46:23.437Z,89.42
2019-04-16T16:48:53.718Z,80.57
2019-04-16T16:51:23.412Z,29.20
2019-04-16T16:54:10.807Z,67.42
2019-04-16T16:57:02.057Z,70.57
2019-04-16T16:59:39.842Z,49.95
2019-04-16T17:02:13.833Z,113.12
2019-04-16T17:04:45.187Z,78.25
2019-04-16T17:07:17.704Z,100.97
2019-04-16T17:09:46.271Z,47.40
2019-04-16T17:12:15.962Z,59.90
2019-04-16T17:14:45.685Z,54.05
2019-04-16T17:17:15.436Z,64.82
2019-04-16T17:19:45.175Z,46.90
2019-04-16T17:22:17.402Z,32.15
2019-04-16T17:24:46.272Z,25.95
2019-04-16T17:27:15.978Z,46.05
2019-04-16T17:29:46.674Z,37.42
2019-04-16T17:32:17.375Z,32.60
2019-04-16T17:34:47.058Z,37.10
2019-04-16T17:37:16.845Z,27.30
2019-04-16T17:39:54.489Z,25.12
2019-04-16T17:42:28.652Z,22.02
2019-04-16T17:45:15.992Z,39.40
2019-04-16T17:48:02.194Z,36.70
2019-04-16T17:50:40.318Z,38.53
2019-04-16T17:53:11.800Z,81.28
2019-04-16T17:55:48.969Z,51.55
2019-04-16T17:58:24.174Z,51.13
2019-04-16T18:00:59.192Z,71.33
2019-04-16T18:03:42.232Z,58.02
2019-04-16T18:06:13.545Z,84.32
2019-04-16T18:08:53.854Z,206.17
2019-04-16T18:11:26.744Z,247.85
2019-04-16T18:14:07.634Z,164.75
2019-04-16T18:16:40.487Z,151.40
2019-04-16T18:19:11.859Z,121.33
2019-04-16T18:21:51.897Z,104.67
2019-04-16T18:24:40.598Z,123.38
2019-04-16T18:27:11.921Z,136.52
2019-04-16T18:29:46.330Z,138.88
2019-04-16T18:32:23.208Z,161.60
2019-04-16T18:34:57.494Z,167.77
2019-04-16T18:37:30.085Z,166.07
2019-04-16T18:40:08.689Z,160.03
2019-04-16T18:42:44.962Z,183.15
2019-04-16T18:45:32.392Z,180.65
2019-04-16T18:48:19.033Z,168.65
2019-04-16T18:50:49.845Z,186.88
2019-04-16T18:53:20.421Z,232.83
2019-04-16T18:55:51.721Z,252.25
2019-04-16T18:58:22.679Z,248.97
2019-04-16T19:00:55.261Z,227.18
2019-04-16T19:03:26.386Z,232.83
2019-04-16T19:05:57.174Z,283.35
2019-04-16T19:08:41.052Z,275.75
2019-04-16T19:11:03.810Z,262.48
2019-04-16T19:13:33.681Z,223.65
2019-04-16T19:16:03.471Z,259.40
2019-04-16T19:18:33.233Z,196.93
2019-04-16T19:21:04.582Z,158.50
2019-04-16T19:23:34.955Z,153.20
2019-04-16T19:26:05.248Z,173.53
2019-04-16T19:28:36.357Z,183.12
2019-04-16T19:31:07.930Z,260.10
2019-04-16T19:33:38.659Z,249.35
2019-04-16T19:36:09.443Z,276.92
2019-04-16T19:38:41.671Z,250.10
2019-04-16T19:41:11.535Z,201.65
2019-04-16T19:43:41.256Z,172.60
2019-04-16T19:46:15.359Z,173.13
2019-04-16T19:48:43.275Z,229.87
2019-04-16T19:51:13.350Z,177.60
2019-04-16T19:53:44.598Z,175.85
2019-04-16T19:56:15.530Z,142.07
2019-04-16T19:58:49.203Z,132.80
2019-04-16T20:01:19.444Z,135.28
2019-04-16T20:03:49.258Z,131.90
2019-04-16T20:06:25.263Z,126.22
2019-04-16T20:08:52.596Z,242.50
2019-04-16T20:11:24.892Z,194.25
2019-04-16T20:13:55.534Z,161.97
2019-04-16T20:16:25.307Z,141.68
2019-04-16T20:18:55.461Z,161.92
2019-04-16T20:21:27.602Z,164.65
2019-04-16T20:23:58.266Z,141.57
2019-04-16T20:26:29.403Z,127.22
2019-04-16T20:28:59.349Z,135.32
2019-04-16T20:31:29.006Z,136.85
2019-04-16T20:33:58.796Z,121.80
2019-04-16T20:36:28.449Z,134.47
2019-04-16T20:38:58.141Z,135.12
2019-04-16T20:41:27.895Z,221.97
2019-04-16T20:43:57.977Z,215.43
2019-04-16T20:46:27.662Z,190.60
2019-04-16T20:49:07.716Z,194.50
2019-04-16T20:51:28.682Z,181.50
2019-04-16T20:53:58.791Z,186.70
2019-04-16T20:56:28.410Z,226.05
2019-04-16T20:59:03.722Z,160.82
2019-04-16T21:01:35.310Z,233.35
2019-04-16T21:04:05.604Z,190.75
2019-04-16T21:06:32.538Z,187.65
2019-04-16T21:09:02.529Z,166.60
2019-04-16T21:11:32.114Z,148.35
2019-04-16T21:14:01.774Z,186.00
2019-04-16T21:16:33.831Z,272.60
2019-04-16T21:19:03.758Z,238.30
2019-04-16T21:21:33.392Z,140.15
2019-04-16T21:24:06.870Z,89.28
2019-04-16T21:26:34.366Z,110.95
2019-04-16T21:29:21.683Z,85.97
2019-04-16T21:31:53.195Z,64.72
2019-04-16T21:34:29.761Z,52.93
2019-04-16T21:37:00.385Z,62.33
2019-04-16T21:39:40.446Z,89.52
2019-04-16T21:42:10.072Z,110.32
2019-04-16T21:44:41.394Z,83.35
2019-04-16T21:47:11.058Z,75.90
2019-04-16T21:49:45.017Z,76.87
2019-04-16T21:52:12.013Z,78.78
2019-04-16T21:54:41.738Z,82.50
2019-04-16T21:57:13.542Z,76.77
2019-04-16T21:59:42.709Z,83.47
2019-04-16T22:02:14.155Z,101.40
2019-04-16T22:04:45.403Z,62.60
2019-04-16T22:07:15.119Z,93.60
2019-04-16T22:09:44.838Z,69.75
2019-04-16T22:12:15.539Z,59.77
2019-04-16T22:14:45.999Z,73.20
2019-04-16T22:17:15.661Z,82.12
2019-04-16T22:19:53.848Z,78.60
2019-04-16T22:22:16.731Z,70.70
2019-04-16T22:24:46.358Z,69.77
2019-04-16T22:27:16.012Z,60.48
2019-04-16T22:29:47.545Z,54.03
2019-04-16T22:32:16.980Z,53.68
2019-04-16T22:34:46.606Z,91.12
2019-04-16T22:37:16.263Z,84.55
2019-04-16T22:39:51.237Z,74.27
2019-04-16T22:42:23.225Z,79.62
2019-04-16T22:44:57.237Z,57.20
2019-04-16T22:47:28.529Z,52.95
2019-04-16T22:50:13.916Z,52.13
2019-04-16T22:52:29.487Z,41.13
2019-04-16T22:54:59.210Z,39.25
2019-04-16T22:57:30.940Z,29.92
2019-04-16T23:00:00.405Z,32.23
2019-04-16T23:02:30.995Z,32.45
2019-04-16T23:05:00.834Z,33.85
2019-04-16T23:07:30.630Z,36.70
2019-04-16T23:10:00.255Z,26.33
2019-04-16T23:12:30.000Z,27.02
2019-04-16T23:14:59.742Z,24.70
2019-04-16T23:17:29.377Z,27.30
2019-04-16T23:19:59.034Z,23.27
2019-04-16T23:22:28.668Z,26.17
2019-04-16T23:24:58.321Z,28.40
2019-04-16T23:27:28.137Z,31.05
2019-04-16T23:29:58.598Z,25.10
2019-04-16T23:32:28.839Z,26.17
2019-04-16T23:34:58.606Z,25.23
2019-04-16T23:37:28.243Z,25.25
2019-04-16T23:39:57.999Z,25.35
2019-04-16T23:42:27.614Z,23.98
2019-04-16T23:45:01.855Z,35.60
2019-04-16T23:47:41.999Z,28.62
2019-04-16T23:50:11.807Z,30.40
2019-04-16T23:52:45.717Z,26.40
2019-04-16T23:55:31.859Z,27.13
2019-04-16T23:58:03.139Z,30.32
